createdAt,value
2022-08-29T00:01:31.509Z,22.30
2022-08-29T00:04:00.793Z,22.40
2022-08-29T00:06:29.150Z,22.30
2022-08-29T00:08:57.028Z,22.20
2022-08-29T00:11:24.941Z,22.20
2022-08-29T00:13:52.886Z,22.20
2022-08-29T00:16:20.957Z,22.00
2022-08-29T00:18:48.980Z,21.90
2022-08-29T00:21:18.315Z,21.90
2022-08-29T00:23:46.722Z,21.90
2022-08-29T00:26:14.642Z,21.90
2022-08-29T00:28:42.541Z,21.90
2022-08-29T00:31:10.448Z,21.90
2022-08-29T00:33:39.361Z,21.90
2022-08-29T00:36:09.260Z,21.90
2022-08-29T00:38:38.795Z,21.90
2022-08-29T00:41:10.214Z,22.00
2022-08-29T00:43:39.007Z,22.00
2022-08-29T00:46:17.447Z,22.10
2022-08-29T00:48:54.675Z,22.10
2022-08-29T00:51:23.175Z,22.00
2022-08-29T00:53:59.000Z,21.90
2022-08-29T00:56:30.147Z,21.80
2022-08-29T00:59:03.740Z,21.80
2022-08-29T01:01:31.815Z,21.80
2022-08-29T01:04:00.356Z,21.80
2022-08-29T01:06:29.785Z,21.70
2022-08-29T01:08:59.574Z,21.60
2022-08-29T01:11:47.767Z,21.50
2022-08-29T01:14:16.408Z,21.50
2022-08-29T01:16:45.949Z,21.40
2022-08-29T01:19:24.682Z,21.30
2022-08-29T01:22:04.036Z,21.30
2022-08-29T01:24:40.322Z,21.40
2022-08-29T01:27:10.180Z,21.40
2022-08-29T01:29:38.355Z,21.50
2022-08-29T01:32:08.548Z,21.50
2022-08-29T01:34:36.443Z,21.50
2022-08-29T01:37:08.022Z,21.60
2022-08-29T01:39:39.000Z,21.50
2022-08-29T01:42:11.488Z,21.50
2022-08-29T01:44:40.798Z,21.40
2022-08-29T01:47:11.238Z,21.40
2022-08-29T01:49:40.828Z,21.30
2022-08-29T01:52:09.275Z,21.30
2022-08-29T01:54:41.544Z,21.30
2022-08-29T01:57:13.010Z,21.30
2022-08-29T01:59:42.139Z,21.30
2022-08-29T02:02:16.455Z,21.70
2022-08-29T02:04:45.975Z,21.30
2022-08-29T02:07:15.279Z,21.40
2022-08-29T02:09:47.960Z,21.20
2022-08-29T02:12:17.515Z,21.10
2022-08-29T02:14:46.073Z,21.00
2022-08-29T02:17:13.977Z,21.10
2022-08-29T02:19:42.091Z,21.20
2022-08-29T02:22:10.974Z,21.20
2022-08-29T02:24:39.464Z,21.20
2022-08-29T02:27:09.665Z,21.20
2022-08-29T02:29:38.672Z,21.10
2022-08-29T02:32:07.978Z,21.10
2022-08-29T02:34:36.351Z,21.10
2022-08-29T02:37:05.234Z,21.10
2022-08-29T02:39:36.617Z,21.10
2022-08-29T02:42:05.162Z,21.10
2022-08-29T02:44:34.461Z,21.10
2022-08-29T02:47:02.381Z,21.10
2022-08-29T02:49:30.415Z,21.10
2022-08-29T02:51:59.016Z,21.20
2022-08-29T02:54:29.179Z,21.10
2022-08-29T02:56:57.067Z,21.10
2022-08-29T02:59:24.976Z,21.10
2022-08-29T03:01:54.542Z,21.00
2022-08-29T03:04:22.546Z,21.00
2022-08-29T03:06:52.456Z,20.80
2022-08-29T03:09:20.559Z,20.70
2022-08-29T03:11:48.432Z,20.90
2022-08-29T03:14:16.338Z,20.80
2022-08-29T03:16:44.274Z,20.90
2022-08-29T03:19:13.600Z,20.80
2022-08-29T03:21:41.544Z,20.80
2022-08-29T03:24:09.486Z,20.70
2022-08-29T03:26:37.426Z,20.70
2022-08-29T03:29:07.729Z,20.70
2022-08-29T03:31:36.486Z,20.80
2022-08-29T03:34:04.976Z,20.80
2022-08-29T03:36:34.294Z,20.80
2022-08-29T03:39:02.151Z,20.90
2022-08-29T03:41:30.824Z,20.90
2022-08-29T03:44:00.144Z,20.80
2022-08-29T03:46:28.786Z,20.70
2022-08-29T03:48:56.772Z,20.60
2022-08-29T03:51:28.676Z,20.70
2022-08-29T03:53:58.995Z,20.60
2022-08-29T03:56:27.442Z,20.60
2022-08-29T03:58:55.981Z,20.50
2022-08-29T04:01:27.262Z,20.60
2022-08-29T04:03:56.842Z,20.60
2022-08-29T04:06:27.909Z,20.50
2022-08-29T04:08:56.297Z,20.50
2022-08-29T04:11:34.276Z,20.60
2022-08-29T04:14:03.949Z,20.50
2022-08-29T04:16:31.918Z,20.50
2022-08-29T04:19:00.553Z,20.50
2022-08-29T04:21:28.971Z,20.50
2022-08-29T04:23:57.701Z,20.60
2022-08-29T04:26:42.265Z,20.50
2022-08-29T04:29:12.430Z,20.50
2022-08-29T04:31:41.515Z,20.60
2022-08-29T04:34:11.258Z,20.60
2022-08-29T04:36:41.673Z,20.60
2022-08-29T04:39:10.801Z,20.60
2022-08-29T04:41:40.363Z,20.70
2022-08-29T04:44:09.510Z,20.60
2022-08-29T04:46:37.586Z,20.50
2022-08-29T04:49:05.719Z,20.50
2022-08-29T04:51:35.457Z,20.50
2022-08-29T04:54:04.534Z,20.50
2022-08-29T04:56:32.871Z,20.50
2022-08-29T04:59:04.131Z,20.50
2022-08-29T05:01:32.673Z,20.50
2022-08-29T05:04:00.708Z,20.50
2022-08-29T05:06:33.641Z,20.40
2022-08-29T05:09:03.602Z,20.40
2022-08-29T05:11:32.799Z,20.40
2022-08-29T05:14:03.694Z,20.40
2022-08-29T05:16:32.143Z,20.40
2022-08-29T05:19:00.558Z,20.40
2022-08-29T05:21:33.957Z,20.40
2022-08-29T05:24:07.035Z,20.50
2022-08-29T05:26:39.914Z,20.50
2022-08-29T05:29:10.737Z,20.50
2022-08-29T05:31:40.952Z,20.60
2022-08-29T05:34:25.548Z,20.60
2022-08-29T05:36:58.444Z,20.70
2022-08-29T05:39:26.334Z,20.80
2022-08-29T05:41:55.939Z,20.80
2022-08-29T05:44:35.272Z,20.80
2022-08-29T05:47:04.391Z,20.90
2022-08-29T05:49:32.459Z,20.80
2022-08-29T05:52:00.642Z,20.80
2022-08-29T05:54:30.104Z,20.80
2022-08-29T05:56:58.903Z,20.60
2022-08-29T05:59:28.177Z,20.50
2022-08-29T06:01:56.107Z,20.50
2022-08-29T06:04:24.050Z,20.50
2022-08-29T06:06:51.914Z,20.60
2022-08-29T06:09:20.122Z,20.80
2022-08-29T06:11:49.148Z,20.70
2022-08-29T06:14:17.527Z,20.70
2022-08-29T06:16:49.896Z,20.70
2022-08-29T06:19:17.911Z,20.80
2022-08-29T06:21:45.836Z,20.80
2022-08-29T06:24:15.510Z,20.80
2022-08-29T06:26:45.775Z,21.00
2022-08-29T06:29:14.634Z,21.00
2022-08-29T06:31:43.023Z,21.00
2022-08-29T06:34:12.361Z,21.10
2022-08-29T06:36:41.306Z,21.00
2022-08-29T06:39:12.227Z,21.10
2022-08-29T06:41:41.858Z,21.10
2022-08-29T06:44:10.758Z,21.10
2022-08-29T06:46:40.869Z,21.20
2022-08-29T06:49:19.872Z,21.20
2022-08-29T06:51:57.358Z,21.30
2022-08-29T06:54:28.170Z,21.40
2022-08-29T06:56:57.101Z,21.40
2022-08-29T06:59:25.443Z,21.50
2022-08-29T07:01:54.955Z,21.50
2022-08-29T07:04:26.634Z,21.50
2022-08-29T07:06:55.522Z,21.50
2022-08-29T07:09:23.442Z,21.50
2022-08-29T07:11:51.371Z,21.50
2022-08-29T07:14:19.815Z,21.80
2022-08-29T07:16:47.920Z,21.50
2022-08-29T07:19:16.108Z,21.50
2022-08-29T07:21:48.834Z,21.50
2022-08-29T07:24:18.101Z,21.50
2022-08-29T07:26:48.740Z,21.50
2022-08-29T07:29:19.551Z,21.50
2022-08-29T07:31:48.455Z,21.50
2022-08-29T07:34:20.719Z,21.50
2022-08-29T07:36:50.213Z,21.50
2022-08-29T07:39:20.332Z,21.60
2022-08-29T07:41:48.643Z,21.60
2022-08-29T07:44:18.247Z,21.60
2022-08-29T07:46:46.664Z,21.70
2022-08-29T07:49:15.218Z,21.80
2022-08-29T07:51:44.646Z,21.80
2022-08-29T07:54:17.131Z,21.90
2022-08-29T07:56:45.825Z,22.00
2022-08-29T07:59:13.908Z,22.00
2022-08-29T08:01:42.151Z,22.00
2022-08-29T08:04:11.416Z,22.00
2022-08-29T08:06:40.848Z,22.00
2022-08-29T08:09:11.261Z,22.00
2022-08-29T08:11:42.172Z,22.10
2022-08-29T08:14:10.382Z,22.20
2022-08-29T08:16:38.851Z,22.20
2022-08-29T08:19:12.872Z,22.30
2022-08-29T08:21:43.707Z,22.30
2022-08-29T08:24:19.737Z,22.40
2022-08-29T08:26:49.570Z,22.40
2022-08-29T08:29:18.124Z,22.30
2022-08-29T08:31:47.415Z,22.30
2022-08-29T08:34:15.678Z,22.30
2022-08-29T08:36:45.374Z,22.30
2022-08-29T08:39:14.867Z,22.40
2022-08-29T08:41:53.087Z,22.50
2022-08-29T08:44:51.496Z,22.60
2022-08-29T08:47:26.906Z,22.70
2022-08-29T08:49:59.225Z,22.90
2022-08-29T08:52:32.577Z,22.70
2022-08-29T08:55:04.111Z,22.60
2022-08-29T08:57:41.495Z,22.80
2022-08-29T09:00:12.757Z,22.90
2022-08-29T09:02:53.076Z,22.90
2022-08-29T09:05:44.098Z,22.90
2022-08-29T09:08:26.435Z,22.70
2022-08-29T09:11:00.699Z,22.60
2022-08-29T09:13:43.669Z,22.60
2022-08-29T09:16:25.099Z,22.70
2022-08-29T09:18:54.348Z,22.70
2022-08-29T09:21:40.575Z,22.90
2022-08-29T09:24:13.410Z,23.00
2022-08-29T09:26:41.503Z,23.20
2022-08-29T09:29:13.780Z,23.20
2022-08-29T09:31:42.053Z,23.30
2022-08-29T09:34:15.366Z,23.40
2022-08-29T09:36:48.037Z,23.50
2022-08-29T09:39:22.724Z,23.50
2022-08-29T09:41:55.573Z,23.70
2022-08-29T09:44:27.789Z,23.50
2022-08-29T09:47:07.783Z,23.60
2022-08-29T09:49:37.730Z,23.60
2022-08-29T09:52:13.030Z,23.80
2022-08-29T09:54:41.819Z,23.90
2022-08-29T09:57:21.089Z,23.90
2022-08-29T10:00:06.891Z,24.00
2022-08-29T10:02:46.164Z,24.20
2022-08-29T10:05:33.702Z,24.10
2022-08-29T10:08:03.507Z,24.10
2022-08-29T10:10:38.540Z,24.10
2022-08-29T10:13:11.908Z,24.10
2022-08-29T10:15:50.973Z,24.00
2022-08-29T10:18:28.555Z,23.70
2022-08-29T10:21:10.135Z,23.80
2022-08-29T10:23:47.410Z,24.00
2022-08-29T10:26:27.357Z,24.20
2022-08-29T10:29:02.815Z,24.20
2022-08-29T10:31:38.674Z,24.10
2022-08-29T10:34:28.507Z,23.80
2022-08-29T10:37:01.788Z,23.70
2022-08-29T10:39:39.838Z,23.50
2022-08-29T10:42:13.142Z,23.70
2022-08-29T10:44:54.318Z,24.00
2022-08-29T10:47:33.481Z,24.30
2022-08-29T10:50:42.626Z,24.40
2022-08-29T10:53:14.645Z,24.60
2022-08-29T10:55:55.197Z,24.60
2022-08-29T10:58:32.356Z,24.60
2022-08-29T11:01:09.516Z,24.50
2022-08-29T11:03:47.701Z,24.20
2022-08-29T11:06:22.676Z,24.30
2022-08-29T11:08:58.503Z,24.60
2022-08-29T11:11:29.926Z,24.80
2022-08-29T11:14:06.038Z,24.90
2022-08-29T11:16:42.646Z,24.80
2022-08-29T11:19:22.054Z,25.00
2022-08-29T11:21:56.799Z,25.30
2022-08-29T11:24:34.798Z,25.40
2022-08-29T11:27:11.064Z,25.20
2022-08-29T11:29:46.509Z,25.20
2022-08-29T11:32:23.259Z,25.40
2022-08-29T11:35:06.942Z,25.40
2022-08-29T11:38:12.475Z,25.30
2022-08-29T11:43:51.319Z,25.40
2022-08-29T11:46:40.013Z,25.40
2022-08-29T11:49:51.129Z,25.50
2022-08-29T11:52:27.083Z,25.60
2022-08-29T11:55:30.509Z,25.80
2022-08-29T11:58:07.210Z,25.90
2022-08-29T12:00:48.312Z,26.00
2022-08-29T12:03:51.970Z,26.10
2022-08-29T12:06:52.127Z,26.10
2022-08-29T12:09:33.797Z,26.00
2022-08-29T12:12:17.830Z,26.00
2022-08-29T12:14:47.776Z,26.10
2022-08-29T12:18:03.845Z,26.30
2022-08-29T12:20:44.312Z,26.30
2022-08-29T12:23:26.297Z,26.30
2022-08-29T12:26:16.250Z,26.30
2022-08-29T12:28:48.625Z,26.30
2022-08-29T12:31:51.691Z,26.60
2022-08-29T12:34:43.245Z,26.60
2022-08-29T12:37:43.487Z,26.70
2022-08-29T12:40:52.891Z,26.70
2022-08-29T12:43:32.046Z,26.90
2022-08-29T12:46:01.151Z,26.80
2022-08-29T12:48:34.160Z,26.80
2022-08-29T12:51:04.620Z,26.80
2022-08-29T12:53:35.026Z,26.80
2022-08-29T12:56:05.345Z,26.90
2022-08-29T12:58:41.602Z,27.00
2022-08-29T13:01:22.539Z,27.20
2022-08-29T13:04:04.278Z,27.30
2022-08-29T13:06:34.378Z,27.20
2022-08-29T13:09:02.952Z,27.20
2022-08-29T13:11:33.464Z,27.40
2022-08-29T13:14:08.828Z,27.30
2022-08-29T13:16:38.293Z,26.90
2022-08-29T13:19:18.614Z,26.80
2022-08-29T13:21:46.731Z,26.90
2022-08-29T13:24:19.323Z,27.10
2022-08-29T13:27:04.576Z,27.30
2022-08-29T13:29:40.103Z,27.40
2022-08-29T13:32:27.006Z,27.60
2022-08-29T13:35:04.872Z,27.70
2022-08-29T13:37:35.443Z,27.80
2022-08-29T13:40:29.680Z,27.90
2022-08-29T13:42:59.149Z,28.00
2022-08-29T13:45:28.603Z,28.20
2022-08-29T13:48:13.452Z,28.20
2022-08-29T13:50:41.793Z,28.20
2022-08-29T13:53:09.846Z,28.20
2022-08-29T13:55:38.034Z,28.20
2022-08-29T13:58:06.023Z,28.20
2022-08-29T14:00:35.856Z,28.20
2022-08-29T14:03:09.711Z,28.10
2022-08-29T14:05:38.538Z,28.20
2022-08-29T14:08:08.552Z,28.20
2022-08-29T14:10:36.496Z,28.20
2022-08-29T14:13:05.597Z,28.10
2022-08-29T14:15:35.131Z,28.10
2022-08-29T14:18:03.139Z,28.10
2022-08-29T14:20:31.421Z,28.20
2022-08-29T14:22:59.325Z,28.20
2022-08-29T14:25:27.962Z,28.20
2022-08-29T14:27:55.928Z,28.20
2022-08-29T14:30:25.732Z,28.20
2022-08-29T14:32:54.953Z,28.20
2022-08-29T14:35:26.384Z,28.20
2022-08-29T14:38:00.058Z,28.20
2022-08-29T14:40:28.955Z,28.30
2022-08-29T14:42:57.467Z,28.40
2022-08-29T14:45:25.404Z,28.50
2022-08-29T14:47:54.665Z,28.60
2022-08-29T14:50:23.431Z,28.70
2022-08-29T14:52:51.528Z,28.70
2022-08-29T14:55:20.334Z,28.80
2022-08-29T14:57:48.706Z,28.70
2022-08-29T15:00:20.314Z,28.70
2022-08-29T15:02:48.305Z,28.60
2022-08-29T15:05:20.570Z,28.70
2022-08-29T15:07:48.639Z,28.70
2022-08-29T15:10:18.854Z,28.70
2022-08-29T15:12:47.296Z,28.70
2022-08-29T15:15:15.354Z,28.70
2022-08-29T15:17:44.520Z,28.80
2022-08-29T15:23:03.894Z,28.80
2022-08-29T15:25:31.941Z,28.90
2022-08-29T15:27:59.891Z,28.90
2022-08-29T15:30:27.922Z,28.90
2022-08-29T15:32:56.119Z,28.90
2022-08-29T15:35:24.194Z,28.90
2022-08-29T15:37:54.229Z,28.90
2022-08-29T15:40:23.866Z,28.70
2022-08-29T15:42:54.236Z,28.70
2022-08-29T15:45:22.820Z,28.70
2022-08-29T15:47:51.349Z,28.70
2022-08-29T15:50:24.042Z,28.60
2022-08-29T15:52:52.391Z,28.60
2022-08-29T15:55:21.191Z,28.50
2022-08-29T15:57:51.070Z,28.40
2022-08-29T16:00:29.665Z,28.40
2022-08-29T16:03:02.913Z,28.30
2022-08-29T16:05:32.673Z,28.20
2022-08-29T16:08:00.568Z,28.20
2022-08-29T16:10:28.788Z,28.10
2022-08-29T16:12:58.324Z,28.10
2022-08-29T16:15:27.596Z,27.90
2022-08-29T16:17:55.564Z,27.90
2022-08-29T16:20:23.550Z,27.90
2022-08-29T16:22:51.804Z,27.80
2022-08-29T16:25:19.782Z,27.70
2022-08-29T16:27:47.956Z,27.50
2022-08-29T16:30:18.097Z,27.60
2022-08-29T16:32:48.856Z,27.70
2022-08-29T16:35:17.299Z,27.70
2022-08-29T16:37:45.853Z,27.70
2022-08-29T16:40:18.087Z,27.70
2022-08-29T16:42:55.252Z,27.50
2022-08-29T16:45:27.671Z,27.50
2022-08-29T16:47:57.705Z,27.50
2022-08-29T16:50:26.849Z,27.40
2022-08-29T16:52:55.085Z,27.40
2022-08-29T16:55:24.023Z,27.40
2022-08-29T16:58:05.984Z,27.40
2022-08-29T17:00:35.777Z,27.50
2022-08-29T17:03:03.717Z,27.30
2022-08-29T17:05:31.747Z,27.30
2022-08-29T17:07:58.569Z,27.30
2022-08-29T17:10:27.821Z,27.40
2022-08-29T17:12:54.869Z,27.30
2022-08-29T17:15:21.814Z,27.30
2022-08-29T17:17:51.067Z,27.30
2022-08-29T17:20:20.213Z,27.30
2022-08-29T17:22:48.145Z,27.30
2022-08-29T17:25:16.059Z,27.30
2022-08-29T17:27:55.611Z,27.30
2022-08-29T17:30:30.520Z,27.20
2022-08-29T17:32:59.904Z,27.10
2022-08-29T17:35:27.806Z,27.10
2022-08-29T17:37:55.695Z,27.20
2022-08-29T17:40:23.900Z,27.20
2022-08-29T17:42:55.855Z,27.00
2022-08-29T17:45:24.027Z,27.00
2022-08-29T17:47:51.925Z,27.00
2022-08-29T17:50:21.245Z,27.00
2022-08-29T17:52:49.219Z,26.90
2022-08-29T17:55:17.230Z,26.90
2022-08-29T17:57:45.065Z,26.90
2022-08-29T18:00:14.246Z,26.90
2022-08-29T18:02:42.591Z,26.90
2022-08-29T18:05:12.618Z,26.80
2022-08-29T18:07:42.306Z,26.80
2022-08-29T18:10:12.344Z,26.70
2022-08-29T18:12:40.978Z,26.70
2022-08-29T18:15:13.744Z,26.70
2022-08-29T18:17:44.681Z,26.60
2022-08-29T18:20:15.860Z,26.60
2022-08-29T18:22:48.900Z,26.60
2022-08-29T18:25:20.440Z,26.60
2022-08-29T18:27:51.411Z,26.50
2022-08-29T18:30:20.294Z,26.50
2022-08-29T18:32:48.265Z,26.50
2022-08-29T18:35:16.333Z,26.50
2022-08-29T18:37:47.946Z,26.50
2022-08-29T18:40:15.958Z,26.40
2022-08-29T18:42:44.075Z,26.40
2022-08-29T18:45:12.874Z,26.40
2022-08-29T18:47:40.838Z,26.40
2022-08-29T18:50:27.067Z,26.40
2022-08-29T18:52:56.541Z,26.40
2022-08-29T18:55:25.029Z,26.30
2022-08-29T18:57:53.908Z,26.30
2022-08-29T19:00:22.672Z,26.20
2022-08-29T19:02:50.584Z,26.20
2022-08-29T19:05:18.995Z,26.20
2022-08-29T19:07:46.935Z,26.20
2022-08-29T19:10:16.860Z,26.10
2022-08-29T19:12:46.879Z,26.10
2022-08-29T19:15:15.692Z,26.10
2022-08-29T19:17:43.922Z,26.00
2022-08-29T19:20:31.297Z,26.00
2022-08-29T19:22:59.522Z,26.00
2022-08-29T19:25:30.013Z,25.90
2022-08-29T19:27:58.638Z,25.80
2022-08-29T19:30:27.426Z,25.80
2022-08-29T19:32:55.675Z,25.80
2022-08-29T19:35:25.262Z,25.70
2022-08-29T19:37:53.924Z,25.70
2022-08-29T19:40:24.398Z,25.70
2022-08-29T19:42:55.679Z,25.70
2022-08-29T19:45:27.340Z,25.70
2022-08-29T19:47:58.519Z,25.70
2022-08-29T19:50:27.507Z,25.70
2022-08-29T19:52:55.526Z,25.70
2022-08-29T19:55:24.788Z,25.70
2022-08-29T19:57:54.532Z,25.60
2022-08-29T20:00:24.927Z,25.50
2022-08-29T20:02:53.319Z,25.50
2022-08-29T20:05:22.957Z,25.50
2022-08-29T20:07:51.339Z,25.50
2022-08-29T20:10:22.791Z,25.50
2022-08-29T20:12:53.162Z,25.50
2022-08-29T20:15:22.942Z,25.50
2022-08-29T20:17:59.919Z,25.50
2022-08-29T20:20:34.378Z,25.50
2022-08-29T20:23:02.564Z,25.50
2022-08-29T20:25:31.994Z,25.50
2022-08-29T20:28:01.781Z,25.40
2022-08-29T20:30:33.362Z,25.40
2022-08-29T20:33:01.429Z,25.40
2022-08-29T20:35:47.197Z,25.40
2022-08-29T20:38:15.244Z,25.40
2022-08-29T20:40:46.817Z,25.30
2022-08-29T20:43:19.192Z,25.40
2022-08-29T20:45:47.220Z,25.40
2022-08-29T20:48:15.498Z,25.30
2022-08-29T20:50:43.991Z,25.30
2022-08-29T20:53:14.771Z,25.20
2022-08-29T20:56:00.431Z,25.20
2022-08-29T20:58:30.154Z,25.10
2022-08-29T21:00:59.394Z,25.10
2022-08-29T21:03:44.820Z,25.10
2022-08-29T21:06:12.981Z,25.10
2022-08-29T21:08:41.557Z,25.10
2022-08-29T21:11:10.228Z,25.10
2022-08-29T21:13:47.383Z,25.10
2022-08-29T21:16:17.635Z,25.10
2022-08-29T21:18:45.621Z,25.10
2022-08-29T21:21:14.459Z,25.00
2022-08-29T21:23:42.427Z,25.10
2022-08-29T21:26:12.717Z,25.10
2022-08-29T21:28:43.347Z,25.10
2022-08-29T21:31:16.908Z,25.10
2022-08-29T21:33:46.207Z,25.00
2022-08-29T21:36:15.450Z,25.10
2022-08-29T21:38:43.474Z,25.10
2022-08-29T21:41:12.287Z,25.10
2022-08-29T21:43:40.638Z,25.00
2022-08-29T21:46:16.819Z,25.00
2022-08-29T21:48:44.844Z,25.00
2022-08-29T21:51:13.951Z,25.00
2022-08-29T21:53:41.842Z,24.90
2022-08-29T21:56:09.967Z,25.00
2022-08-29T21:58:37.935Z,24.90
2022-08-29T22:01:06.397Z,24.90
2022-08-29T22:03:35.648Z,24.80
2022-08-29T22:06:05.408Z,24.80
2022-08-29T22:08:33.509Z,24.80
2022-08-29T22:11:01.427Z,24.80
2022-08-29T22:13:29.290Z,24.70
2022-08-29T22:16:14.577Z,24.80
2022-08-29T22:18:43.911Z,24.70
2022-08-29T22:21:15.246Z,24.60
2022-08-29T22:23:44.488Z,24.60
2022-08-29T22:26:13.022Z,24.50
2022-08-29T22:28:41.943Z,24.40
2022-08-29T22:31:11.012Z,24.40
2022-08-29T22:33:39.240Z,24.40
2022-08-29T22:36:12.874Z,24.40
2022-08-29T22:38:42.343Z,24.40
2022-08-29T22:41:11.467Z,24.40
2022-08-29T22:43:40.288Z,24.40
2022-08-29T22:46:15.532Z,24.40
2022-08-29T22:48:46.423Z,24.40
2022-08-29T22:51:18.044Z,24.50
2022-08-29T22:54:07.109Z,24.40
2022-08-29T22:56:38.234Z,24.40
2022-08-29T22:59:07.463Z,24.40
2022-08-29T23:01:38.376Z,24.40
2022-08-29T23:04:07.446Z,24.40
2022-08-29T23:06:37.044Z,24.40
2022-08-29T23:09:06.091Z,24.30
2022-08-29T23:11:34.516Z,24.20
2022-08-29T23:14:03.108Z,24.20
2022-08-29T23:16:32.873Z,24.20
2022-08-29T23:19:01.905Z,24.20
2022-08-29T23:21:30.555Z,24.30
2022-08-29T23:24:00.670Z,24.20
2022-08-29T23:26:29.453Z,24.20
2022-08-29T23:28:57.397Z,24.20
2022-08-29T23:31:25.747Z,24.20
2022-08-29T23:33:54.503Z,24.20
2022-08-29T23:36:22.873Z,24.20
2022-08-29T23:38:52.665Z,24.10
2022-08-29T23:41:22.178Z,24.10
2022-08-29T23:43:50.721Z,24.10
2022-08-29T23:46:18.829Z,24.10
2022-08-29T23:48:46.741Z,24.10
2022-08-29T23:51:15.483Z,24.10
2022-08-29T23:53:44.065Z,24.20
2022-08-29T23:56:14.944Z,24.10
2022-08-29T23:58:45.095Z,24.10
